Riverside, Utah
Current Conditions -  °F | °C
As of 8:51 AM on Wednesday 28 Jan 2015 (Local Time) from KLGU Reporting Station
Overcast Overcast  
Wind Chill: 37°   Ceiling: 4600
Heat Index: 40°   Visibility: 10mi
Dew Point: 37°   Wind: 5mph
Humidity: 89%   Direction: 70°ENE
Pressure: 30.26"   Gusts: NA
Location:  41.78°N, 112.14°W
Report Text: KLGU 281551Z AUTO 07004KT 10SM FEW024 OVC046 04/03 A3026 RMK AO2 SLP247 T00440028
Loading
Personal Weather Stations






























Interactive Weather Map New forecast layout! Learn more

10-Day Weather Forecast

Advertisements
Track Severe Weather on mobile